sensor_id;sensor_type;location;lat;lon;timestamp;pressure;altitude;pressure_sealevel;temperature;humidity
43119;BME280;28729;49.838;8.650;2023-08-20T00:01:04;100102.59;;;24.52;100.00
43119;BME280;28729;49.838;8.650;2023-08-20T00:05:07;100100.47;;;24.49;100.00
43119;BME280;28729;49.838;8.650;2023-08-20T00:09:09;100113.56;;;24.45;100.00
43119;BME280;28729;49.838;8.650;2023-08-20T00:13:11;100110.75;;;24.45;100.00
43119;BME280;28729;49.838;8.650;2023-08-20T00:17:12;100107.72;;;24.42;100.00
43119;BME280;28729;49.838;8.650;2023-08-20T00:21:14;100110.25;;;24.34;100.00
43119;BME280;28729;49.838;8.650;2023-08-20T00:25:17;100118.53;;;24.31;100.00
43119;BME280;28729;49.838;8.650;2023-08-20T00:29:19;100121.88;;;24.24;100.00
43119;BME280;28729;49.838;8.650;2023-08-20T00:33:21;100122.03;;;24.19;100.00
43119;BME280;28729;49.838;8.650;2023-08-20T00:37:23;100133.81;;;24.13;100.00
43119;BME280;28729;49.838;8.650;2023-08-20T00:41:25;100137.97;;;24.06;100.00
43119;BME280;28729;49.838;8.650;2023-08-20T00:45:26;100132.00;;;23.99;100.00
43119;BME280;28729;49.838;8.650;2023-08-20T00:49:29;100134.50;;;23.92;100.00
43119;BME280;28729;49.838;8.650;2023-08-20T00:53:31;100139.63;;;23.81;100.00
43119;BME280;28729;49.838;8.650;2023-08-20T00:57:34;100139.09;;;23.71;100.00
43119;BME280;28729;49.838;8.650;2023-08-20T01:01:37;100129.78;;;23.61;100.00
43119;BME280;28729;49.838;8.650;2023-08-20T01:05:46;100129.78;;;23.53;100.00
43119;BME280;28729;49.838;8.650;2023-08-20T01:10:06;100125.16;;;23.48;100.00
43119;BME280;28729;49.838;8.650;2023-08-20T01:14:16;100128.63;;;23.45;100.00
43119;BME280;28729;49.838;8.650;2023-08-20T01:18:18;100142.69;;;23.45;100.00
43119;BME280;28729;49.838;8.650;2023-08-20T01:22:48;100133.28;;;23.41;100.00
43119;BME280;28729;49.838;8.650;2023-08-20T01:31:35;100114.72;;;23.31;100.00
43119;BME280;28729;49.838;8.650;2023-08-20T01:35:37;100112.91;;;23.27;100.00
43119;BME280;28729;49.838;8.650;2023-08-20T01:39:48;100115.84;;;23.22;100.00
43119;BME280;28729;49.838;8.650;2023-08-20T01:43:50;100117.47;;;23.14;100.00
43119;BME280;28729;49.838;8.650;2023-08-20T01:47:52;100113.66;;;23.10;100.00
43119;BME280;28729;49.838;8.650;2023-08-20T01:51:54;100101.22;;;23.02;100.00
43119;BME280;28729;49.838;8.650;2023-08-20T01:55:56;100092.47;;;22.95;100.00
43119;BME280;28729;49.838;8.650;2023-08-20T01:59:58;100094.91;;;22.88;100.00
43119;BME280;28729;49.838;8.650;2023-08-20T02:04:00;100078.19;;;22.83;100.00
43119;BME280;28729;49.838;8.650;2023-08-20T02:08:03;100083.94;;;22.78;100.00
43119;BME280;28729;49.838;8.650;2023-08-20T02:12:06;100095.31;;;22.72;100.00
43119;BME280;28729;49.838;8.650;2023-08-20T02:16:08;100095.47;;;22.67;100.00
43119;BME280;28729;49.838;8.650;2023-08-20T02:20:11;100105.56;;;22.68;100.00
43119;BME280;28729;49.838;8.650;2023-08-20T02:24:12;100106.19;;;22.65;100.00
43119;BME280;28729;49.838;8.650;2023-08-20T02:28:15;100110.81;;;22.61;100.00
43119;BME280;28729;49.838;8.650;2023-08-20T02:32:16;100114.28;;;22.58;100.00
43119;BME280;28729;49.838;8.650;2023-08-20T02:36:18;100106.81;;;22.53;100.00
43119;BME280;28729;49.838;8.650;2023-08-20T02:40:20;100118.69;;;22.50;100.00
43119;BME280;28729;49.838;8.650;2023-08-20T02:44:21;100131.53;;;22.43;100.00
43119;BME280;28729;49.838;8.650;2023-08-20T02:48:24;100132.97;;;22.32;100.00
43119;BME280;28729;49.838;8.650;2023-08-20T02:52:29;100144.19;;;22.32;100.00
43119;BME280;28729;49.838;8.650;2023-08-20T02:56:31;100130.97;;;22.32;100.00
43119;BME280;28729;49.838;8.650;2023-08-20T03:00:33;100131.44;;;22.25;100.00
43119;BME280;28729;49.838;8.650;2023-08-20T03:04:35;100139.84;;;22.25;100.00
43119;BME280;28729;49.838;8.650;2023-08-20T03:08:37;100139.34;;;22.23;100.00
43119;BME280;28729;49.838;8.650;2023-08-20T03:12:38;100132.06;;;22.22;100.00
43119;BME280;28729;49.838;8.650;2023-08-20T03:16:40;100123.22;;;22.15;100.00
43119;BME280;28729;49.838;8.650;2023-08-20T03:20:42;100126.03;;;22.15;100.00
43119;BME280;28729;49.838;8.650;2023-08-20T03:24:44;100107.22;;;22.16;100.00
43119;BME280;28729;49.838;8.650;2023-08-20T03:28:46;100112.53;;;22.17;100.00
43119;BME280;28729;49.838;8.650;2023-08-20T03:32:48;100106.94;;;22.17;100.00
43119;BME280;28729;49.838;8.650;2023-08-20T03:36:50;100109.75;;;22.17;100.00
43119;BME280;28729;49.838;8.650;2023-08-20T03:40:54;100110.25;;;22.19;100.00
43119;BME280;28729;49.838;8.650;2023-08-20T03:44:57;100113.38;;;22.18;100.00
43119;BME280;28729;49.838;8.650;2023-08-20T03:48:58;100111.72;;;22.17;100.00
43119;BME280;28729;49.838;8.650;2023-08-20T03:53:01;100105.03;;;22.13;100.00
43119;BME280;28729;49.838;8.650;2023-08-20T03:57:03;100111.63;;;22.08;100.00
43119;BME280;28729;49.838;8.650;2023-08-20T04:01:05;100110.59;;;22.04;100.00
43119;BME280;28729;49.838;8.650;2023-08-20T04:05:07;100106.78;;;22.00;100.00
43119;BME280;28729;49.838;8.650;2023-08-20T04:09:08;100110.03;;;21.93;100.00
43119;BME280;28729;49.838;8.650;2023-08-20T04:13:11;100131.13;;;21.91;100.00
43119;BME280;28729;49.838;8.650;2023-08-20T04:17:15;100134.59;;;21.88;100.00
43119;BME280;28729;49.838;8.650;2023-08-20T04:21:17;100135.22;;;21.84;100.00
43119;BME280;28729;49.838;8.650;2023-08-20T04:25:18;100144.78;;;21.83;100.00
43119;BME280;28729;49.838;8.650;2023-08-20T04:29:22;100148.41;;;21.84;100.00
43119;BME280;28729;49.838;8.650;2023-08-20T04:33:23;100153.69;;;21.85;100.00
43119;BME280;28729;49.838;8.650;2023-08-20T04:37:26;100150.88;;;21.85;100.00
43119;BME280;28729;49.838;8.650;2023-08-20T04:41:28;100153.69;;;21.85;100.00
43119;BME280;28729;49.838;8.650;2023-08-20T04:45:30;100164.72;;;21.82;100.00
43119;BME280;28729;49.838;8.650;2023-08-20T04:49:32;100172.50;;;21.85;100.00
43119;BME280;28729;49.838;8.650;2023-08-20T04:53:35;100177.50;;;21.88;100.00
43119;BME280;28729;49.838;8.650;2023-08-20T04:57:37;100178.53;;;21.92;100.00
43119;BME280;28729;49.838;8.650;2023-08-20T05:01:39;100182.53;;;22.00;100.00
43119;BME280;28729;49.838;8.650;2023-08-20T05:05:41;100172.53;;;22.07;100.00
43119;BME280;28729;49.838;8.650;2023-08-20T05:09:43;100174.72;;;22.11;100.00
43119;BME280;28729;49.838;8.650;2023-08-20T05:13:47;100178.34;;;22.11;100.00
43119;BME280;28729;49.838;8.650;2023-08-20T05:17:49;100180.44;;;22.19;100.00
43119;BME280;28729;49.838;8.650;2023-08-20T05:21:51;100176.84;;;22.27;100.00
43119;BME280;28729;49.838;8.650;2023-08-20T05:25:54;100173.91;;;22.33;100.00
43119;BME280;28729;49.838;8.650;2023-08-20T05:29:56;100173.78;;;22.38;100.00
43119;BME280;28729;49.838;8.650;2023-08-20T05:33:58;100186.41;;;22.49;100.00
43119;BME280;28729;49.838;8.650;2023-08-20T05:38:00;100196.22;;;22.60;100.00
43119;BME280;28729;49.838;8.650;2023-08-20T05:42:02;100202.22;;;22.67;100.00
43119;BME280;28729;49.838;8.650;2023-08-20T05:46:05;100200.09;;;22.73;100.00
43119;BME280;28729;49.838;8.650;2023-08-20T05:50:07;100202.44;;;22.80;100.00
43119;BME280;28729;49.838;8.650;2023-08-20T05:54:09;100214.03;;;22.87;100.00
43119;BME280;28729;49.838;8.650;2023-08-20T05:58:11;100214.94;;;22.96;100.00
43119;BME280;28729;49.838;8.650;2023-08-20T06:02:16;100206.75;;;23.08;100.00
43119;BME280;28729;49.838;8.650;2023-08-20T06:06:19;100214.22;;;23.13;100.00
43119;BME280;28729;49.838;8.650;2023-08-20T06:10:21;100220.69;;;23.22;100.00
43119;BME280;28729;49.838;8.650;2023-08-20T06:14:22;100203.03;;;23.30;100.00
43119;BME280;28729;49.838;8.650;2023-08-20T06:18:24;100219.44;;;23.37;100.00
43119;BME280;28729;49.838;8.650;2023-08-20T06:22:26;100218.63;;;23.45;100.00
43119;BME280;28729;49.838;8.650;2023-08-20T06:26:28;100218.16;;;23.52;100.00
43119;BME280;28729;49.838;8.650;2023-08-20T06:30:30;100224.63;;;23.61;100.00
43119;BME280;28729;49.838;8.650;2023-08-20T06:34:33;100222.47;;;23.66;100.00
43119;BME280;28729;49.838;8.650;2023-08-20T06:38:36;100231.50;;;23.77;100.00
43119;BME280;28729;49.838;8.650;2023-08-20T06:42:38;100235.13;;;23.86;100.00
43119;BME280;28729;49.838;8.650;2023-08-20T06:46:41;100233.31;;;23.99;100.00
43119;BME280;28729;49.838;8.650;2023-08-20T06:50:43;100236.00;;;24.13;100.00
43119;BME280;28729;49.838;8.650;2023-08-20T06:54:45;100238.47;;;24.32;100.00
43119;BME280;28729;49.838;8.650;2023-08-20T06:58:46;100231.53;;;24.55;100.00
43119;BME280;28729;49.838;8.650;2023-08-20T07:02:48;100235.94;;;24.83;100.00
43119;BME280;28729;49.838;8.650;2023-08-20T07:06:51;100241.16;;;25.10;100.00
43119;BME280;28729;49.838;8.650;2023-08-20T07:10:52;100241.09;;;25.36;100.00
43119;BME280;28729;49.838;8.650;2023-08-20T07:14:54;100247.06;;;25.73;100.00
43119;BME280;28729;49.838;8.650;2023-08-20T07:18:56;100248.00;;;26.07;100.00
43119;BME280;28729;49.838;8.650;2023-08-20T07:22:58;100242.69;;;26.26;100.00
43119;BME280;28729;49.838;8.650;2023-08-20T07:27:01;100242.69;;;26.26;100.00
43119;BME280;28729;49.838;8.650;2023-08-20T07:31:04;100227.56;;;26.31;100.00
43119;BME280;28729;49.838;8.650;2023-08-20T07:35:06;100235.75;;;26.45;100.00
43119;BME280;28729;49.838;8.650;2023-08-20T07:39:12;100242.44;;;26.61;100.00
43119;BME280;28729;49.838;8.650;2023-08-20T07:43:18;100242.13;;;26.75;100.00
43119;BME280;28729;49.838;8.650;2023-08-20T07:47:20;100245.31;;;26.86;100.00
43119;BME280;28729;49.838;8.650;2023-08-20T07:51:21;100247.00;;;26.87;100.00
43119;BME280;28729;49.838;8.650;2023-08-20T07:55:23;100242.56;;;27.10;100.00
43119;BME280;28729;49.838;8.650;2023-08-20T07:59:25;100244.03;;;27.29;100.00
43119;BME280;28729;49.838;8.650;2023-08-20T08:03:27;100241.81;;;27.34;100.00
43119;BME280;28729;49.838;8.650;2023-08-20T08:07:29;100249.00;;;27.56;100.00
43119;BME280;28729;49.838;8.650;2023-08-20T08:11:31;100245.56;;;27.63;100.00
43119;BME280;28729;49.838;8.650;2023-08-20T08:15:32;100243.72;;;27.79;100.00
43119;BME280;28729;49.838;8.650;2023-08-20T08:19:34;100251.09;;;27.96;100.00
43119;BME280;28729;49.838;8.650;2023-08-20T08:23:36;100262.53;;;28.12;100.00
43119;BME280;28729;49.838;8.650;2023-08-20T08:27:38;100259.78;;;28.28;100.00
43119;BME280;28729;49.838;8.650;2023-08-20T08:31:58;100267.31;;;28.48;98.34
43119;BME280;28729;49.838;8.650;2023-08-20T08:36:00;100266.06;;;28.61;95.79
43119;BME280;28729;49.838;8.650;2023-08-20T08:40:03;100264.84;;;28.75;92.54
43119;BME280;28729;49.838;8.650;2023-08-20T08:44:08;100266.59;;;28.79;92.47
43119;BME280;28729;49.838;8.650;2023-08-20T08:48:10;100264.50;;;28.92;89.81
43119;BME280;28729;49.838;8.650;2023-08-20T08:52:13;100269.78;;;29.06;89.83
43119;BME280;28729;49.838;8.650;2023-08-20T08:56:15;100264.47;;;29.20;90.04
43119;BME280;28729;49.838;8.650;2023-08-20T09:00:17;100264.13;;;29.38;89.60
43119;BME280;28729;49.838;8.650;2023-08-20T09:04:18;100255.78;;;29.61;89.50
43119;BME280;28729;49.838;8.650;2023-08-20T09:08:27;100266.19;;;29.69;85.69
43119;BME280;28729;49.838;8.650;2023-08-20T09:12:34;100273.84;;;29.84;83.60
43119;BME280;28729;49.838;8.650;2023-08-20T09:16:35;100265.88;;;30.09;82.80
43119;BME280;28729;49.838;8.650;2023-08-20T09:20:37;100257.44;;;30.29;77.85
43119;BME280;28729;49.838;8.650;2023-08-20T09:24:44;100270.44;;;30.30;81.50
43119;BME280;28729;49.838;8.650;2023-08-20T09:28:47;100265.81;;;30.60;79.85
43119;BME280;28729;49.838;8.650;2023-08-20T09:33:03;100263.19;;;30.71;78.50
43119;BME280;28729;49.838;8.650;2023-08-20T09:37:10;100256.75;;;30.74;74.86
43119;BME280;28729;49.838;8.650;2023-08-20T09:41:12;100258.84;;;30.97;77.00
43119;BME280;28729;49.838;8.650;2023-08-20T09:45:15;100268.41;;;31.08;72.80
43119;BME280;28729;49.838;8.650;2023-08-20T09:49:19;100264.94;;;31.18;70.32
43119;BME280;28729;49.838;8.650;2023-08-20T09:53:27;100260.00;;;31.15;72.00
43119;BME280;28729;49.838;8.650;2023-08-20T09:57:34;100259.72;;;31.43;72.64
43119;BME280;28729;49.838;8.650;2023-08-20T10:01:38;100244.25;;;31.67;66.61
43119;BME280;28729;49.838;8.650;2023-08-20T10:05:40;100248.91;;;31.79;67.07
43119;BME280;28729;49.838;8.650;2023-08-20T10:09:42;100252.53;;;31.76;65.94
43119;BME280;28729;49.838;8.650;2023-08-20T10:13:47;100249.53;;;31.65;64.08
43119;BME280;28729;49.838;8.650;2023-08-20T10:17:49;100258.47;;;31.67;63.24
43119;BME280;28729;49.838;8.650;2023-08-20T10:21:56;100254.66;;;31.83;61.68
43119;BME280;28729;49.838;8.650;2023-08-20T10:26:07;100250.75;;;31.91;56.49
43119;BME280;28729;49.838;8.650;2023-08-20T10:30:11;100250.47;;;31.99;57.50
43119;BME280;28729;49.838;8.650;2023-08-20T10:34:32;100252.25;;;32.11;57.33
43119;BME280;28729;49.838;8.650;2023-08-20T10:38:37;100253.13;;;32.15;56.15
43119;BME280;28729;49.838;8.650;2023-08-20T10:42:41;100249.66;;;32.29;55.73
43119;BME280;28729;49.838;8.650;2023-08-20T10:46:50;100246.97;;;32.40;53.35
43119;BME280;28729;49.838;8.650;2023-08-20T10:50:53;100244.16;;;32.43;54.44
43119;BME280;28729;49.838;8.650;2023-08-20T10:54:56;100241.53;;;32.61;54.09
43119;BME280;28729;49.838;8.650;2023-08-20T10:59:06;100245.88;;;32.82;55.32
43119;BME280;28729;49.838;8.650;2023-08-20T11:03:08;100244.97;;;33.11;55.23
43119;BME280;28729;49.838;8.650;2023-08-20T11:07:10;100239.09;;;33.38;52.54
43119;BME280;28729;49.838;8.650;2023-08-20T11:11:12;100237.13;;;33.49;51.97
43119;BME280;28729;49.838;8.650;2023-08-20T11:15:14;100243.75;;;33.53;51.62
43119;BME280;28729;49.838;8.650;2023-08-20T11:19:19;100237.25;;;33.56;50.54
43119;BME280;28729;49.838;8.650;2023-08-20T11:23:22;100240.91;;;33.53;48.09
43119;BME280;28729;49.838;8.650;2023-08-20T11:27:27;100225.22;;;33.40;49.79
43119;BME280;28729;49.838;8.650;2023-08-20T11:31:29;100242.19;;;33.63;49.76
43119;BME280;28729;49.838;8.650;2023-08-20T11:35:32;100235.34;;;33.78;46.08
43119;BME280;28729;49.838;8.650;2023-08-20T11:39:36;100222.75;;;33.87;46.85
43119;BME280;28729;49.838;8.650;2023-08-20T11:43:41;100231.19;;;34.28;46.10
43119;BME280;28729;49.838;8.650;2023-08-20T11:47:43;100225.13;;;34.51;46.38
43119;BME280;28729;49.838;8.650;2023-08-20T11:51:47;100226.53;;;35.03;43.62
43119;BME280;28729;49.838;8.650;2023-08-20T11:55:51;100216.78;;;35.72;40.67
43119;BME280;28729;49.838;8.650;2023-08-20T11:59:53;100213.72;;;36.47;41.69
43119;BME280;28729;49.838;8.650;2023-08-20T12:04:00;100214.69;;;36.96;38.53
43119;BME280;28729;49.838;8.650;2023-08-20T12:08:03;100213.88;;;37.55;37.68
43119;BME280;28729;49.838;8.650;2023-08-20T12:12:08;100213.56;;;38.25;36.23
43119;BME280;28729;49.838;8.650;2023-08-20T12:16:10;100201.72;;;38.54;35.95
43119;BME280;28729;49.838;8.650;2023-08-20T12:20:12;100198.28;;;38.93;34.78
43119;BME280;28729;49.838;8.650;2023-08-20T12:24:14;100189.72;;;39.40;34.52
43119;BME280;28729;49.838;8.650;2023-08-20T12:28:16;100194.38;;;39.58;33.01
43119;BME280;28729;49.838;8.650;2023-08-20T12:32:19;100188.72;;;39.74;32.60
43119;BME280;28729;49.838;8.650;2023-08-20T12:36:20;100191.75;;;40.30;32.74
43119;BME280;28729;49.838;8.650;2023-08-20T12:40:22;100186.97;;;40.60;30.93
43119;BME280;28729;49.838;8.650;2023-08-20T12:44:24;100185.78;;;40.77;30.65
43119;BME280;28729;49.838;8.650;2023-08-20T12:48:26;100184.31;;;41.06;30.29
43119;BME280;28729;49.838;8.650;2023-08-20T12:52:28;100184.22;;;41.42;29.99
43119;BME280;28729;49.838;8.650;2023-08-20T12:56:29;100180.34;;;41.65;29.97
43119;BME280;28729;49.838;8.650;2023-08-20T13:00:31;100175.91;;;42.35;28.62
43119;BME280;28729;49.838;8.650;2023-08-20T13:04:34;100175.72;;;42.68;27.26
43119;BME280;28729;49.838;8.650;2023-08-20T13:08:37;100158.22;;;42.59;26.91
43119;BME280;28729;49.838;8.650;2023-08-20T13:12:41;100155.69;;;42.86;26.67
43119;BME280;28729;49.838;8.650;2023-08-20T13:16:43;100152.88;;;42.95;25.91
43119;BME280;28729;49.838;8.650;2023-08-20T13:20:45;100159.81;;;42.60;26.41
43119;BME280;28729;49.838;8.650;2023-08-20T13:24:47;100159.28;;;43.16;25.80
43119;BME280;28729;49.838;8.650;2023-08-20T13:28:49;100153.81;;;43.31;25.90
43119;BME280;28729;49.838;8.650;2023-08-20T13:32:51;100152.44;;;43.22;26.07
43119;BME280;28729;49.838;8.650;2023-08-20T13:36:52;100153.59;;;42.99;25.71
43119;BME280;28729;49.838;8.650;2023-08-20T13:40:54;100151.59;;;43.35;25.44
43119;BME280;28729;49.838;8.650;2023-08-20T13:44:57;100148.84;;;43.66;24.92
43119;BME280;28729;49.838;8.650;2023-08-20T13:48:59;100156.44;;;43.85;24.43
43119;BME280;28729;49.838;8.650;2023-08-20T13:53:00;100143.84;;;43.19;24.74
43119;BME280;28729;49.838;8.650;2023-08-20T13:57:03;100140.72;;;43.00;24.22
43119;BME280;28729;49.838;8.650;2023-08-20T14:01:05;100136.53;;;42.08;25.51
43119;BME280;28729;49.838;8.650;2023-08-20T14:05:08;100144.16;;;42.02;26.39
43119;BME280;28729;49.838;8.650;2023-08-20T14:09:10;100145.31;;;41.92;26.53
43119;BME280;28729;49.838;8.650;2023-08-20T14:13:12;100142.22;;;41.05;27.94
43119;BME280;28729;49.838;8.650;2023-08-20T14:17:14;100134.69;;;40.18;29.57
43119;BME280;28729;49.838;8.650;2023-08-20T14:21:16;100137.84;;;39.40;29.94
43119;BME280;28729;49.838;8.650;2023-08-20T14:25:18;100138.91;;;38.72;30.87
43119;BME280;28729;49.838;8.650;2023-08-20T14:29:20;100136.59;;;38.02;30.52
43119;BME280;28729;49.838;8.650;2023-08-20T14:33:21;100133.00;;;37.91;31.20
43119;BME280;28729;49.838;8.650;2023-08-20T14:37:23;100136.41;;;37.79;31.34
43119;BME280;28729;49.838;8.650;2023-08-20T14:41:25;100132.94;;;37.60;31.54
43119;BME280;28729;49.838;8.650;2023-08-20T14:45:27;100134.88;;;37.26;32.27
43119;BME280;28729;49.838;8.650;2023-08-20T14:49:29;100137.16;;;37.00;32.21
43119;BME280;28729;49.838;8.650;2023-08-20T14:53:30;100136.09;;;36.72;32.46
43119;BME280;28729;49.838;8.650;2023-08-20T14:57:32;100125.03;;;36.75;32.91
43119;BME280;28729;49.838;8.650;2023-08-20T15:01:50;100124.44;;;36.94;32.20
43119;BME280;28729;49.838;8.650;2023-08-20T15:05:52;100124.44;;;36.94;32.50
43119;BME280;28729;49.838;8.650;2023-08-20T15:09:54;100113.31;;;36.40;33.09
43119;BME280;28729;49.838;8.650;2023-08-20T15:13:56;100104.91;;;35.90;33.46
43119;BME280;28729;49.838;8.650;2023-08-20T15:17:57;100103.81;;;35.59;34.47
43119;BME280;28729;49.838;8.650;2023-08-20T15:21:59;100112.06;;;35.10;34.90
43119;BME280;28729;49.838;8.650;2023-08-20T15:26:01;100108.72;;;34.83;35.54
43119;BME280;28729;49.838;8.650;2023-08-20T15:30:04;100106.66;;;34.59;35.67
43119;BME280;28729;49.838;8.650;2023-08-20T15:34:05;100104.53;;;34.34;36.27
43119;BME280;28729;49.838;8.650;2023-08-20T15:38:08;100110.22;;;34.16;36.92
43119;BME280;28729;49.838;8.650;2023-08-20T15:42:09;100105.22;;;34.02;36.93
43119;BME280;28729;49.838;8.650;2023-08-20T15:46:11;100111.72;;;33.96;37.43
43119;BME280;28729;49.838;8.650;2023-08-20T15:50:13;100104.31;;;33.84;38.04
43119;BME280;28729;49.838;8.650;2023-08-20T15:54:15;100112.03;;;33.73;38.09
43119;BME280;28729;49.838;8.650;2023-08-20T15:58:17;100106.72;;;33.68;37.19
43119;BME280;28729;49.838;8.650;2023-08-20T16:02:19;100103.84;;;33.68;38.01
43119;BME280;28729;49.838;8.650;2023-08-20T16:06:20;100106.25;;;33.58;38.60
43119;BME280;28729;49.838;8.650;2023-08-20T16:10:23;100105.03;;;33.63;38.39
43119;BME280;28729;49.838;8.650;2023-08-20T16:14:25;100100.66;;;33.80;38.47
43119;BME280;28729;49.838;8.650;2023-08-20T16:18:26;100088.69;;;34.58;37.84
43119;BME280;28729;49.838;8.650;2023-08-20T16:22:29;100093.91;;;34.31;37.86
43119;BME280;28729;49.838;8.650;2023-08-20T16:26:31;100100.38;;;34.14;38.40
43119;BME280;28729;49.838;8.650;2023-08-20T16:30:35;100101.09;;;33.96;38.21
43119;BME280;28729;49.838;8.650;2023-08-20T16:34:37;100101.03;;;33.75;38.86
43119;BME280;28729;49.838;8.650;2023-08-20T16:38:39;100099.31;;;33.63;38.81
43119;BME280;28729;49.838;8.650;2023-08-20T16:42:40;100098.06;;;33.53;41.13
43119;BME280;28729;49.838;8.650;2023-08-20T16:46:42;100098.28;;;33.30;40.46
43119;BME280;28729;49.838;8.650;2023-08-20T16:50:44;100099.72;;;33.06;40.41
43119;BME280;28729;49.838;8.650;2023-08-20T16:54:46;100111.91;;;33.00;42.31
43119;BME280;28729;49.838;8.650;2023-08-20T16:58:49;100103.56;;;32.84;42.36
43119;BME280;28729;49.838;8.650;2023-08-20T17:02:50;100101.00;;;32.68;42.94
43119;BME280;28729;49.838;8.650;2023-08-20T17:06:52;100103.69;;;32.50;45.61
43119;BME280;28729;49.838;8.650;2023-08-20T17:11:11;100096.59;;;32.37;48.11
43119;BME280;28729;49.838;8.650;2023-08-20T17:15:13;100083.56;;;32.80;47.26
43119;BME280;28729;49.838;8.650;2023-08-20T17:19:15;100086.22;;;33.00;48.02
43119;BME280;28729;49.838;8.650;2023-08-20T17:23:18;100099.38;;;33.11;47.36
43119;BME280;28729;49.838;8.650;2023-08-20T17:27:20;100097.38;;;32.75;48.41
43119;BME280;28729;49.838;8.650;2023-08-20T17:31:21;100099.06;;;32.42;51.52
43119;BME280;28729;49.838;8.650;2023-08-20T17:35:23;100099.88;;;32.05;51.50
43119;BME280;28729;49.838;8.650;2023-08-20T17:39:25;100098.38;;;31.85;53.73
43119;BME280;28729;49.838;8.650;2023-08-20T17:43:27;100094.16;;;31.71;54.86
43119;BME280;28729;49.838;8.650;2023-08-20T17:47:28;100095.38;;;31.44;57.14
43119;BME280;28729;49.838;8.650;2023-08-20T17:51:30;100089.88;;;31.31;57.32
43119;BME280;28729;49.838;8.650;2023-08-20T17:55:32;100092.78;;;31.35;56.10
43119;BME280;28729;49.838;8.650;2023-08-20T17:59:34;100091.03;;;31.27;57.55
43119;BME280;28729;49.838;8.650;2023-08-20T18:03:36;100091.75;;;30.94;59.57
43119;BME280;28729;49.838;8.650;2023-08-20T18:07:38;100098.78;;;30.57;62.29
43119;BME280;28729;49.838;8.650;2023-08-20T18:11:40;100105.44;;;30.23;62.26
43119;BME280;28729;49.838;8.650;2023-08-20T18:15:42;100107.19;;;29.92;63.97
43119;BME280;28729;49.838;8.650;2023-08-20T18:19:43;100109.81;;;29.62;66.03
43119;BME280;28729;49.838;8.650;2023-08-20T18:23:45;100107.94;;;29.34;67.88
43119;BME280;28729;49.838;8.650;2023-08-20T18:27:47;100115.81;;;29.09;69.21
43119;BME280;28729;49.838;8.650;2023-08-20T18:31:49;100126.19;;;28.85;70.12
43119;BME280;28729;49.838;8.650;2023-08-20T18:35:59;100116.66;;;28.62;71.96
43119;BME280;28729;49.838;8.650;2023-08-20T18:40:01;100131.38;;;28.39;72.91
43119;BME280;28729;49.838;8.650;2023-08-20T18:44:05;100135.25;;;28.19;71.63
43119;BME280;28729;49.838;8.650;2023-08-20T18:48:07;100141.13;;;27.98;71.53
43119;BME280;28729;49.838;8.650;2023-08-20T18:52:09;100139.88;;;27.83;73.38
43119;BME280;28729;49.838;8.650;2023-08-20T18:56:11;100144.13;;;27.65;74.00
43119;BME280;28729;49.838;8.650;2023-08-20T19:00:13;100154.19;;;27.50;75.09
43119;BME280;28729;49.838;8.650;2023-08-20T19:04:15;100160.09;;;27.33;75.53
43119;BME280;28729;49.838;8.650;2023-08-20T19:08:17;100159.75;;;27.22;76.75
43119;BME280;28729;49.838;8.650;2023-08-20T19:12:21;100164.66;;;27.13;78.54
43119;BME280;28729;49.838;8.650;2023-08-20T19:16:22;100179.28;;;27.02;79.91
43119;BME280;28729;49.838;8.650;2023-08-20T19:20:24;100176.44;;;26.90;79.81
43119;BME280;28729;49.838;8.650;2023-08-20T19:24:26;100175.34;;;26.82;79.56
43119;BME280;28729;49.838;8.650;2023-08-20T19:28:27;100178.53;;;26.81;79.57
43119;BME280;28729;49.838;8.650;2023-08-20T19:32:29;100181.00;;;26.82;79.26
43119;BME280;28729;49.838;8.650;2023-08-20T19:36:31;100185.00;;;26.81;78.21
43119;BME280;28729;49.838;8.650;2023-08-20T19:40:34;100183.81;;;26.82;78.45
43119;BME280;28729;49.838;8.650;2023-08-20T19:44:36;100185.72;;;26.78;78.96
43119;BME280;28729;49.838;8.650;2023-08-20T19:48:38;100196.19;;;26.78;78.72
43119;BME280;28729;49.838;8.650;2023-08-20T19:52:40;100193.72;;;26.76;78.97
43119;BME280;28729;49.838;8.650;2023-08-20T19:56:42;100194.41;;;26.73;78.83
43119;BME280;28729;49.838;8.650;2023-08-20T20:00:44;100199.59;;;26.71;79.52
43119;BME280;28729;49.838;8.650;2023-08-20T20:04:46;100201.47;;;26.67;80.37
43119;BME280;28729;49.838;8.650;2023-08-20T20:08:48;100200.16;;;26.65;80.67
43119;BME280;28729;49.838;8.650;2023-08-20T20:12:50;100208.50;;;26.61;81.18
43119;BME280;28729;49.838;8.650;2023-08-20T20:16:52;100205.69;;;26.61;81.86
43119;BME280;28729;49.838;8.650;2023-08-20T20:20:54;100208.38;;;26.57;82.33
43119;BME280;28729;49.838;8.650;2023-08-20T20:24:56;100213.09;;;26.53;82.07
43119;BME280;28729;49.838;8.650;2023-08-20T20:28:58;100208.59;;;26.52;83.09
43119;BME280;28729;49.838;8.650;2023-08-20T20:33:00;100213.59;;;26.47;83.53
43119;BME280;28729;49.838;8.650;2023-08-20T20:37:02;100215.00;;;26.41;84.06
43119;BME280;28729;49.838;8.650;2023-08-20T20:41:06;100214.38;;;26.35;84.89
43119;BME280;28729;49.838;8.650;2023-08-20T20:45:08;100214.72;;;26.33;85.18
43119;BME280;28729;49.838;8.650;2023-08-20T20:49:10;100225.53;;;26.31;85.28
43119;BME280;28729;49.838;8.650;2023-08-20T20:53:13;100227.88;;;26.29;86.54
43119;BME280;28729;49.838;8.650;2023-08-20T20:57:18;100232.09;;;26.23;87.32
43119;BME280;28729;49.838;8.650;2023-08-20T21:01:19;100230.19;;;26.15;89.06
43119;BME280;28729;49.838;8.650;2023-08-20T21:05:22;100231.56;;;26.09;88.22